Boulia, Australia
Current Conditions -  °F | °C
As of 11:30 AM on Thursday 27 Nov 2014 (Local Time) from YBMA Reporting Station
Clear Clear  
Wind Chill: 97°   Ceiling: Unl
Heat Index: 97°   Visibility: 6mi
Dew Point: 54°   Wind: 10mph
Humidity: 23%   Direction: 40°NE
Pressure: 29.83"   Gusts: NA
Location:  22.91°S, 139.91°E
Report Text: YBMA 270130Z AUTO 04009KT 9999 // NCD 36/12 Q1010
Loading
Personal Weather Stations






























Interactive Weather Map New forecast layout! Learn more

10-Day Weather Forecast

Advertisements
Track Severe Weather on mobile